METAR AND TAF INFORMATION
METAR FOR KVCV
ADDS - METARS form results

(0711 UTC 28 October 2021)
Data provider http://aviationweather.gov/metar/data/
 
METAR text: KVCV 280655Z AUTO 20003KT 10SM CLR 11/07 A3028 RMK AO2
Conditions at: KVCV (VICTORVILLE , CA, US) observed 0655 UTC 28 October 2021
Temperature: 11.0°C (52°F)
Dewpoint: 7.0°C (45°F) [RH = 76%]
Pressure (altimeter): 30.28 inches Hg (1025.5 mb)
Winds: from the SSW (200 degrees) at 3 MPH (3 knots; 1.5 m/s)
Visibility: 10 or more miles (16+ km)
Ceiling: at least 12,000 feet AGL
Clouds: sky clear below 12,000 feet AGL
Weather: automated observation with no human augmentation;
there may or may not be significant weather present at this time

METAR text: KVCV 280635Z AUTO 00000KT 10SM CLR 12/07 A3028 RMK AO2
Conditions at: KVCV (VICTORVILLE , CA, US) observed 0635 UTC 28 October 2021
Temperature: 12.0°C (54°F)
Dewpoint: 7.0°C (45°F) [RH = 71%]
Pressure (altimeter): 30.28 inches Hg (1025.5 mb)
Winds: calm
Visibility: 10 or more miles (16+ km)
Ceiling: at least 12,000 feet AGL
Clouds: sky clear below 12,000 feet AGL
Weather: automated observation with no human augmentation;
there may or may not be significant weather present at this time

METAR text: KVCV 280615Z AUTO 00000KT 10SM CLR 12/07 A3028 RMK AO2
Conditions at: KVCV (VICTORVILLE , CA, US) observed 0615 UTC 28 October 2021
Temperature: 12.0°C (54°F)
Dewpoint: 7.0°C (45°F) [RH = 71%]
Pressure (altimeter): 30.28 inches Hg (1025.5 mb)
Winds: calm
Visibility: 10 or more miles (16+ km)
Ceiling: at least 12,000 feet AGL
Clouds: sky clear below 12,000 feet AGL
Weather: automated observation with no human augmentation;
there may or may not be significant weather present at this time

 AIRPORT MAP

 RUNWAY INFORMATION
Runway 03 Runway length 9138 ft Runway width 150 ft
Runway elevation 2878 ft Runway displaced threshold 0 ft Runway heading 45
Runway 21 Runway length 9138 ft Runway width 150 ft
Runway elevation 2844 ft Runway displaced threshold 0 ft Runway heading 225
Runway 17 Runway length 15050 ft Runway width 150 ft
Runway elevation 2828 ft Runway displaced threshold 4000 ft Runway heading 180
Runway 35 Runway length 15050 ft Runway width 150 ft
Runway elevation 2885 ft Runway displaced threshold 0 ft Runway heading 360

 AIRPORT FREQUENCIES
Type A/D Name JOSHUA APP Frequency 124.55 MHZ
Type AWOS Name AWOS 3 Frequency 109.4 MHZ
Type GND Name GND Frequency 124.45 MHZ
Type TWR Name VICTORVILL Frequency 118.35 MHZ

 AIRPORT NEAR NAVIGATION AIDS

-